Terminal Aerodrome Forecast
Issued by NWS

Home | Current Version | Previous Version | Text Only | Print | Product List | Glossary On
Versions: 1 2 3 4 5 6 7 8 9 10 11 12
395
FTUS46 KSEW 210539
TAFBLI
TAF
KBLI 210539Z 2106/2206 10005KT P6SM OVC060
     FM210900 17015G25KT P6SM -RA BKN035 OVC050
     FM211200 18012G22KT P6SM VCSH BKN025 BKN040
     FM211800 19012G20KT P6SM SCT030 BKN050
     FM212100 23012KT P6SM SCT045
     FM220200 17005KT P6SM BKN045=

USA.gov is the U.S. government's official web portal to all federal, state and local government web resources and services.